createdAt,value
2023-01-03T00:00:00.546Z,240.6
2023-01-03T00:05:00.816Z,210.5
2023-01-03T00:10:00.682Z,224.5
2023-01-03T00:15:00.559Z,233.7
2023-01-03T00:20:00.549Z,239.2
2023-01-03T00:25:00.485Z,239.6
2023-01-03T00:30:00.553Z,240.0
2023-01-03T00:35:05.938Z,231.2
2023-01-03T00:40:00.558Z,239.6
2023-01-03T00:45:00.534Z,236.8
2023-01-03T00:50:00.563Z,212.6
2023-01-03T00:55:00.616Z,232.4
2023-01-03T01:00:00.630Z,230.2
2023-01-03T01:05:00.528Z,248.7
2023-01-03T01:10:00.580Z,234.6
2023-01-03T01:15:00.510Z,243.0
2023-01-03T01:20:00.584Z,244.3
2023-01-03T01:25:00.510Z,238.3
2023-01-03T01:30:00.572Z,238.7
2023-01-03T01:35:00.509Z,244.5
2023-01-03T01:40:00.567Z,240.6
2023-01-03T01:45:00.501Z,245.7
2023-01-03T01:50:00.551Z,241.7
2023-01-03T01:55:00.539Z,246.0
2023-01-03T02:00:00.664Z,250.4
2023-01-03T02:05:00.523Z,231.6
2023-01-03T02:10:00.612Z,242.3
2023-01-03T02:15:00.510Z,244.5
2023-01-03T02:20:00.565Z,240.4
2023-01-03T02:25:00.584Z,250.9
2023-01-03T02:30:00.576Z,227.5
2023-01-03T02:35:00.688Z,228.8
2023-01-03T02:40:00.540Z,240.9
2023-01-03T02:45:00.493Z,245.7
2023-01-03T02:50:00.684Z,235.3
2023-01-03T02:55:00.579Z,242.3
2023-01-03T03:00:00.592Z,239.2
2023-01-03T03:05:00.607Z,240.2
2023-01-03T03:10:00.553Z,235.7
2023-01-03T03:15:00.515Z,245.2
2023-01-03T03:20:07.229Z,237.4
2023-01-03T03:25:00.517Z,242.4
2023-01-03T03:30:00.554Z,231.2
2023-01-03T03:35:00.606Z,229.9
2023-01-03T03:40:00.567Z,210.6
2023-01-03T03:45:03.165Z,200.7
2023-01-03T03:50:00.563Z,222.5
2023-01-03T03:55:00.564Z,229.5
2023-01-03T04:00:00.527Z,247.1
2023-01-03T04:05:00.521Z,238.2
2023-01-03T04:10:00.582Z,219.0
2023-01-03T04:15:00.510Z,211.8
2023-01-03T04:20:00.571Z,224.1
2023-01-03T04:25:00.542Z,222.2
2023-01-03T04:30:00.594Z,228.1
2023-01-03T04:35:00.545Z,231.8
2023-01-03T04:40:00.532Z,234.7
2023-01-03T04:45:00.521Z,224.9
2023-01-03T04:50:00.555Z,217.5
2023-01-03T04:55:00.512Z,242.0
2023-01-03T05:00:00.616Z,231.1
2023-01-03T05:05:00.537Z,246.2
2023-01-03T05:10:00.569Z,242.3
2023-01-03T05:15:00.523Z,203.2
2023-01-03T05:20:00.588Z,219.0
2023-01-03T05:25:00.516Z,208.1
2023-01-03T05:30:00.584Z,209.7
2023-01-03T05:35:00.573Z,208.4
2023-01-03T05:40:00.584Z,204.8
2023-01-03T05:45:00.562Z,197.0
2023-01-03T05:50:00.583Z,208.6
2023-01-03T05:55:00.522Z,204.3
2023-01-03T06:00:00.577Z,194.3
2023-01-03T06:05:00.538Z,214.8
2023-01-03T06:10:00.568Z,205.1
2023-01-03T06:15:00.563Z,230.8
2023-01-03T06:20:00.532Z,218.8
2023-01-03T06:25:00.592Z,210.6
2023-01-03T06:30:00.580Z,203.3
2023-01-03T06:35:00.546Z,210.4
2023-01-03T06:40:00.581Z,203.0
2023-01-03T06:45:00.574Z,200.0
2023-01-03T06:50:00.600Z,203.2
2023-01-03T06:55:00.548Z,210.4
2023-01-03T07:00:00.591Z,206.6
2023-01-03T07:05:00.591Z,217.2
2023-01-03T07:10:00.591Z,212.7
2023-01-03T07:15:00.646Z,199.6
2023-01-03T07:20:00.597Z,202.4
2023-01-03T07:25:00.566Z,203.3
2023-01-03T07:30:00.591Z,209.4
2023-01-03T07:35:00.529Z,213.2
2023-01-03T07:40:00.609Z,200.0
2023-01-03T07:45:00.601Z,202.2
2023-01-03T07:50:00.607Z,196.8
2023-01-03T07:55:00.551Z,202.9
2023-01-03T08:00:00.721Z,194.8
2023-01-03T08:05:00.816Z,205.2
2023-01-03T08:10:00.530Z,197.2
2023-01-03T08:15:00.586Z,205.1
2023-01-03T08:20:00.570Z,225.1
2023-01-03T08:25:00.515Z,203.9
2023-01-03T08:30:00.576Z,206.1
2023-01-03T08:35:00.542Z,220.6
2023-01-03T08:40:00.567Z,201.4
2023-01-03T08:45:00.567Z,207.6
2023-01-03T08:50:00.627Z,213.4
2023-01-03T08:55:00.574Z,211.0
2023-01-03T09:00:00.630Z,236.1
2023-01-03T09:05:00.535Z,212.2
2023-01-03T09:10:00.570Z,202.6
2023-01-03T09:15:00.558Z,219.1
2023-01-03T09:20:00.560Z,205.5
2023-01-03T09:25:00.591Z,205.6
2023-01-03T09:30:00.557Z,232.1
2023-01-03T09:35:00.511Z,197.1
2023-01-03T09:40:00.560Z,217.4
2023-01-03T09:45:00.618Z,209.6
2023-01-03T09:50:44.046Z,231.0
2023-01-03T09:55:00.614Z,212.6
2023-01-03T10:00:00.735Z,266.1
2023-01-03T10:05:00.540Z,234.9
2023-01-03T10:10:00.690Z,233.6
2023-01-03T10:15:00.754Z,230.6
2023-01-03T10:20:00.672Z,240.6
2023-01-03T10:25:00.544Z,223.8
2023-01-03T10:30:00.742Z,219.2
2023-01-03T10:35:00.518Z,239.2
2023-01-03T10:40:00.586Z,215.9
2023-01-03T10:45:00.581Z,243.7
2023-01-03T10:50:00.589Z,228.4
2023-01-03T10:55:00.569Z,228.0
2023-01-03T11:00:00.895Z,238.1
2023-01-03T11:05:00.518Z,239.7
2023-01-03T11:10:00.642Z,248.7
2023-01-03T11:15:00.696Z,245.7
2023-01-03T11:20:00.610Z,233.0
2023-01-03T11:25:00.561Z,250.7
2023-01-03T11:30:00.677Z,239.4
2023-01-03T11:35:25.380Z,248.3
2023-01-03T11:40:00.549Z,239.5
2023-01-03T11:45:00.573Z,247.4
2023-01-03T11:50:00.606Z,250.4
2023-01-03T11:55:00.730Z,226.3
2023-01-03T12:00:00.625Z,253.6
2023-01-03T12:05:00.634Z,230.5
2023-01-03T12:10:00.579Z,236.3
2023-01-03T12:15:01.079Z,243.7
2023-01-03T12:20:00.686Z,259.5
2023-01-03T12:25:06.182Z,242.6
2023-01-03T12:30:00.797Z,235.5
2023-01-03T12:35:00.543Z,240.4
2023-01-03T12:40:00.667Z,256.0
2023-01-03T12:45:00.551Z,240.3
2023-01-03T12:50:00.598Z,236.3
2023-01-03T12:55:00.509Z,243.6
2023-01-03T13:00:00.573Z,250.9
2023-01-03T13:05:00.555Z,245.7
2023-01-03T13:10:02.167Z,214.0
2023-01-03T13:15:00.733Z,245.9
2023-01-03T13:20:00.602Z,244.8
2023-01-03T13:25:00.600Z,253.1
2023-01-03T13:30:00.562Z,246.4
2023-01-03T13:35:00.592Z,249.5
2023-01-03T13:40:00.644Z,231.5
2023-01-03T13:45:00.554Z,242.9
2023-01-03T13:50:00.633Z,232.3
2023-01-03T13:55:00.549Z,234.1
2023-01-03T14:00:00.558Z,203.9
2023-01-03T14:05:00.526Z,243.1
2023-01-03T14:10:00.535Z,235.2
2023-01-03T14:15:00.616Z,246.9
2023-01-03T14:20:00.591Z,202.9
2023-01-03T14:25:00.650Z,202.5
2023-01-03T14:30:00.626Z,223.2
2023-01-03T14:35:00.552Z,204.1
2023-01-03T14:40:00.670Z,202.2
2023-01-03T14:45:00.556Z,230.7
2023-01-03T14:50:00.530Z,208.8
2023-01-03T14:55:05.029Z,241.0
2023-01-03T15:00:00.668Z,229.6
2023-01-03T15:05:00.598Z,214.0
2023-01-03T15:10:00.696Z,203.6
2023-01-03T15:15:00.543Z,208.7
2023-01-03T15:20:00.599Z,206.8
2023-01-03T15:25:00.536Z,202.9
2023-01-03T15:30:00.633Z,201.6
2023-01-03T15:35:00.587Z,211.3
2023-01-03T15:40:00.602Z,210.5
2023-01-03T15:45:00.584Z,202.5
2023-01-03T15:50:00.856Z,202.5
2023-01-03T15:55:00.576Z,223.4
2023-01-03T16:00:00.856Z,225.0
2023-01-03T16:05:00.639Z,225.0
2023-01-03T16:10:00.650Z,221.1
2023-01-03T16:15:00.553Z,224.4
2023-01-03T16:20:00.584Z,225.0
2023-01-03T16:25:00.523Z,221.1
2023-01-03T16:30:00.734Z,202.6
2023-01-03T16:35:00.596Z,202.5
2023-01-03T16:40:00.692Z,202.5
2023-01-03T16:45:00.562Z,202.5
2023-01-03T16:50:00.562Z,202.5
2023-01-03T16:55:00.635Z,202.5
2023-01-03T17:00:00.731Z,202.5
2023-01-03T17:05:00.538Z,202.5
2023-01-03T17:10:00.674Z,202.5
2023-01-03T17:15:00.633Z,202.5
2023-01-03T17:20:06.925Z,202.5
2023-01-03T17:25:00.599Z,202.5
2023-01-03T17:30:00.791Z,202.5
2023-01-03T17:35:00.596Z,202.5
2023-01-03T17:40:00.713Z,202.5
2023-01-03T17:45:00.548Z,190.9
2023-01-03T17:50:00.605Z,180.2
2023-01-03T17:55:00.677Z,180.0
2023-01-03T18:00:00.646Z,180.0
2023-01-03T18:05:27.329Z,201.8
2023-01-03T18:10:00.748Z,202.5
2023-01-03T18:15:00.538Z,202.5
2023-01-03T18:20:00.565Z,196.0
2023-01-03T18:25:00.592Z,195.5
2023-01-03T18:30:03.078Z,202.5
2023-01-03T18:35:00.539Z,202.5
2023-01-03T18:40:00.606Z,202.5
2023-01-03T18:45:00.560Z,202.5
2023-01-03T18:50:00.638Z,202.5
2023-01-03T18:55:00.584Z,202.5
2023-01-03T19:00:00.774Z,202.5
2023-01-03T19:05:00.612Z,202.5
2023-01-03T19:10:00.632Z,202.5
2023-01-03T19:15:00.610Z,128.9
2023-01-03T19:20:00.659Z,112.6
2023-01-03T19:25:00.571Z,112.5
2023-01-03T19:30:00.571Z,112.5
2023-01-03T19:55:02.845Z,134.8
2023-01-03T20:00:01.099Z,146.6
2023-01-03T20:05:01.815Z,157.4
2023-01-03T20:15:08.074Z,157.7
2023-01-03T20:20:00.560Z,155.5
2023-01-03T20:25:00.567Z,156.0
2023-01-03T20:30:00.536Z,155.8
2023-01-03T20:40:00.388Z,180.0
2023-01-03T20:45:00.494Z,177.7
2023-01-03T20:50:00.519Z,159.7
2023-01-03T20:55:00.420Z,169.9
2023-01-03T21:00:00.455Z,164.1
2023-01-03T21:05:02.451Z,178.5
2023-01-03T21:10:00.428Z,159.1
2023-01-03T21:15:02.451Z,164.0
2023-01-03T21:20:00.428Z,157.3
2023-01-03T21:25:00.626Z,178.0
2023-01-03T21:30:00.512Z,173.9
2023-01-03T21:35:00.422Z,169.2
2023-01-03T21:40:00.581Z,177.3
2023-01-03T21:45:00.416Z,173.1
2023-01-03T21:50:00.575Z,176.6
2023-01-03T21:55:00.409Z,182.6
2023-01-03T22:00:00.688Z,183.5
2023-01-03T22:05:00.509Z,179.4
2023-01-03T22:10:00.476Z,179.2
2023-01-03T22:15:00.452Z,179.6
2023-01-03T22:20:00.516Z,174.7
2023-01-03T22:25:00.451Z,180.7
2023-01-03T22:30:00.552Z,174.9
2023-01-03T22:35:00.412Z,173.3
2023-01-03T22:40:00.515Z,185.9
2023-01-03T22:45:00.390Z,194.2
2023-01-03T22:50:00.503Z,180.8
2023-01-03T22:55:00.570Z,189.1
2023-01-03T23:00:00.642Z,183.9
2023-01-03T23:05:00.440Z,174.9
2023-01-03T23:10:00.563Z,180.3
2023-01-03T23:15:00.452Z,181.4
2023-01-03T23:20:00.604Z,188.8
2023-01-03T23:25:00.472Z,180.1
2023-01-03T23:30:00.475Z,187.0
2023-01-03T23:35:00.439Z,185.3
2023-01-03T23:40:00.497Z,189.8
2023-01-03T23:45:00.551Z,171.7
2023-01-03T23:50:00.480Z,182.4
2023-01-03T23:55:13.264Z,177.0
